Time;durP1;ratioP1;P1;durP2;ratioP2;P2;SDS_P1;SDS_P2;PMS_P1;PMS_P2;Temp;Humidity;BMP_temperature;BMP_pressure;BME280_temperature;BME280_humidity;BME280_pressure;Samples;Min_cycle;Max_cycle;Signal;HPM_P1;HPM_P2
2022/11/28 04:01:58;;;;;;;1.90;1.23;;;13.30;51.00;;;;;;5240366;23;45860;-56
2022/11/28 04:04:31;;;;;;;2.42;1.30;;;13.30;51.00;;;;;;4905230;28;45303;-57
2022/11/28 04:07:00;;;;;;;1.73;1.35;;;13.30;51.00;;;;;;4876867;28;45441;-57
2022/11/28 04:09:44;;;;;;;1.58;1.45;;;13.30;51.00;;;;;;4889462;28;45232;-58
2022/11/28 04:12:33;;;;;;;1.60;1.20;;;13.30;51.00;;;;;;4891171;28;45444;-58
2022/11/28 04:15:13;;;;;;;2.08;1.30;;;13.30;51.00;;;;;;4890315;28;45742;-58
2022/11/28 04:18:18;;;;;;;1.45;1.20;;;13.30;51.00;;;;;;4881096;28;45438;-59
2022/11/28 04:20:48;;;;;;;1.92;1.30;;;13.30;50.90;;;;;;4881462;28;45265;-58
2022/11/28 04:23:15;;;;;;;2.05;1.33;;;13.30;51.00;;;;;;4895103;28;46281;-57
2022/11/28 04:25:43;;;;;;;1.20;1.10;;;13.30;51.00;;;;;;4880902;28;45294;-58
2022/11/28 04:28:14;;;;;;;1.58;1.25;;;13.30;51.00;;;;;;4893255;28;44712;-57
2022/11/28 04:30:40;;;;;;;1.27;1.17;;;13.30;50.90;;;;;;4904745;28;45547;-58
2022/11/28 04:33:08;;;;;;;1.60;1.20;;;13.30;51.00;;;;;;4894684;28;46268;-55
2022/11/28 04:35:36;;;;;;;2.63;1.15;;;13.30;51.00;;;;;;4892867;28;45978;-58
2022/11/28 04:38:02;;;;;;;1.27;1.13;;;13.30;51.00;;;;;;4895267;28;44941;-62
2022/11/28 04:40:30;;;;;;;1.83;1.25;;;13.30;51.00;;;;;;4878291;28;45499;-58
2022/11/28 04:42:58;;;;;;;1.13;1.02;;;13.30;51.00;;;;;;4877483;28;45528;-54
2022/11/28 04:45:33;;;;;;;1.58;1.30;;;13.30;51.00;;;;;;4894046;28;45062;-54
2022/11/28 04:47:59;;;;;;;1.38;1.08;;;13.30;51.00;;;;;;4892203;28;45548;-57
2022/11/28 04:50:27;;;;;;;1.55;1.02;;;13.30;51.10;;;;;;4909116;28;44751;-56
2022/11/28 04:52:58;;;;;;;1.50;1.40;;;13.30;51.10;;;;;;4895165;28;45558;-56
2022/11/28 04:55:45;;;;;;;1.90;1.60;;;13.50;50.80;;;;;;4907744;28;45363;-54
2022/11/28 04:58:18;;;;;;;1.65;1.50;;;13.60;50.60;;;;;;4891902;28;45571;-54
2022/11/28 05:00:44;;;;;;;1.47;1.37;;;13.70;50.50;;;;;;4889388;28;45280;-58
2022/11/28 05:03:09;;;;;;;1.50;1.40;;;13.70;50.30;;;;;;4895649;28;44999;-56
2022/11/28 05:05:47;;;;;;;1.75;1.60;;;13.80;50.20;;;;;;4892188;28;45498;-57
2022/11/28 05:08:13;;;;;;;1.60;1.50;;;13.80;50.00;;;;;;4906408;28;44922;-56
2022/11/28 05:10:38;;;;;;;1.50;1.40;;;13.90;50.40;;;;;;4880578;28;45314;-54
2022/11/28 05:13:04;;;;;;;1.75;1.63;;;13.90;49.70;;;;;;4894222;28;45280;-56
2022/11/28 05:15:30;;;;;;;1.60;1.50;;;14.00;49.70;;;;;;4900842;28;46579;-56
2022/11/28 05:17:55;;;;;;;1.67;1.57;;;14.00;49.50;;;;;;4905107;28;45531;-56
2022/11/28 05:20:21;;;;;;;1.40;1.30;;;14.00;49.40;;;;;;4910543;28;44764;-56
2022/11/28 05:22:46;;;;;;;1.80;1.50;;;14.00;49.30;;;;;;4911094;28;46370;-52
2022/11/28 05:25:12;;;;;;;1.73;1.50;;;14.10;49.30;;;;;;4909195;28;45838;-58
2022/11/28 05:27:37;;;;;;;1.83;1.40;;;14.10;49.20;;;;;;4907275;28;44995;-57
2022/11/28 05:30:06;;;;;;;1.67;1.40;;;14.10;49.10;;;;;;4891526;28;45097;-53
2022/11/28 05:32:31;;;;;;;1.77;1.50;;;14.20;49.10;;;;;;4909370;28;45216;-54
2022/11/28 05:34:57;;;;;;;1.83;1.60;;;14.20;49.00;;;;;;4893856;28;46061;-58
2022/11/28 05:37:24;;;;;;;1.40;1.30;;;14.20;48.90;;;;;;4907154;28;45057;-56
2022/11/28 05:39:50;;;;;;;1.67;1.58;;;14.20;48.90;;;;;;4911853;28;45475;-58
2022/11/28 05:42:15;;;;;;;1.48;1.38;;;14.20;48.80;;;;;;4912038;28;45028;-58
2022/11/28 05:44:41;;;;;;;1.52;1.42;;;14.20;48.80;;;;;;4912253;28;45458;-57
2022/11/28 05:47:06;;;;;;;1.77;1.50;;;14.20;48.70;;;;;;4911895;28;45387;-54
2022/11/28 05:49:32;;;;;;;1.50;1.40;;;14.20;48.70;;;;;;4913137;28;45515;-56
2022/11/28 05:51:57;;;;;;;1.60;1.50;;;14.20;48.60;;;;;;4914267;28;45382;-56
2022/11/28 05:54:23;;;;;;;1.58;1.48;;;14.20;48.60;;;;;;4911059;28;46240;-58
2022/11/28 05:56:49;;;;;;;1.50;1.40;;;14.20;48.60;;;;;;4896779;28;45699;-58
2022/11/28 05:59:14;;;;;;;1.60;1.50;;;14.30;48.60;;;;;;4894087;28;44679;-60
2022/11/28 06:01:40;;;;;;;1.50;1.40;;;14.20;48.50;;;;;;4908416;28;45609;-55
2022/11/28 06:04:05;;;;;;;1.60;1.50;;;14.20;48.50;;;;;;4911379;28;46533;-58
2022/11/28 06:06:33;;;;;;;1.47;1.33;;;14.30;48.50;;;;;;4906987;28;45564;-56
2022/11/28 06:08:58;;;;;;;1.50;1.40;;;14.30;48.50;;;;;;4913649;28;44999;-58
2022/11/28 06:11:25;;;;;;;2.05;1.40;;;14.30;48.40;;;;;;4909811;28;45177;-57
2022/11/28 06:13:50;;;;;;;1.80;1.50;;;14.30;48.40;;;;;;4911459;28;46027;-58
2022/11/28 06:16:21;;;;;;;1.37;1.27;;;14.30;48.40;;;;;;4913435;28;45464;-55
2022/11/28 06:18:46;;;;;;;1.40;1.30;;;14.30;48.50;;;;;;4910119;28;45149;-55
2022/11/28 06:21:12;;;;;;;1.50;1.40;;;14.30;48.40;;;;;;4912064;28;45434;-54
2022/11/28 06:23:38;;;;;;;1.40;1.30;;;14.30;48.40;;;;;;4912353;28;45217;-55
2022/11/28 06:26:12;;;;;;;1.50;1.40;;;14.30;48.30;;;;;;4896656;28;45303;-57
2022/11/28 06:28:38;;;;;;;1.35;1.25;;;14.30;48.30;;;;;;4910314;28;45268;-55
2022/11/28 06:31:04;;;;;;;1.50;1.40;;;14.30;48.30;;;;;;4909142;28;45439;-56
2022/11/28 06:33:29;;;;;;;2.10;1.70;;;14.30;48.30;;;;;;4907156;28;45535;-58
2022/11/28 06:36:00;;;;;;;1.60;1.50;;;14.30;48.30;;;;;;4909600;28;46247;-55
2022/11/28 06:38:25;;;;;;;1.33;1.23;;;14.30;48.20;;;;;;4874781;28;45382;-54
2022/11/28 06:40:57;;;;;;;1.67;1.57;;;14.30;48.20;;;;;;4911013;28;45428;-58
2022/11/28 06:43:23;;;;;;;1.38;1.27;;;14.30;48.20;;;;;;4917495;28;45454;-55
2022/11/28 06:45:49;;;;;;;1.40;1.20;;;14.30;48.20;;;;;;4910332;28;44824;-58
2022/11/28 06:48:14;;;;;;;1.80;1.48;;;14.30;48.20;;;;;;4889894;28;45501;-59
2022/11/28 06:50:40;;;;;;;1.50;1.40;;;14.30;48.20;;;;;;4912939;28;45628;-57
2022/11/28 06:53:06;;;;;;;1.40;1.30;;;14.30;48.20;;;;;;4912015;28;45192;-57
2022/11/28 06:55:31;;;;;;;1.50;1.40;;;14.30;48.20;;;;;;4911932;28;46710;-55
2022/11/28 06:57:57;;;;;;;1.47;1.37;;;14.30;48.20;;;;;;4910545;28;45402;-59
2022/11/28 07:00:22;;;;;;;4.17;3.77;;;14.30;48.20;;;;;;4911731;28;45678;-58
2022/11/28 07:02:48;;;;;;;10.02;8.68;;;14.20;47.90;;;;;;4893981;28;45883;-57
2022/11/28 07:05:15;;;;;;;10.82;7.93;;;13.60;48.80;;;;;;4910970;28;45575;-60
2022/11/28 07:07:44;;;;;;;9.25;7.28;;;13.20;49.50;;;;;;4897257;28;45334;-54
2022/11/28 07:10:10;;;;;;;7.88;6.47;;;13.20;49.90;;;;;;4897836;28;45480;-58
2022/11/28 07:12:36;;;;;;;7.97;5.88;;;13.20;50.10;;;;;;4909757;28;46493;-54
2022/11/28 07:15:01;;;;;;;7.05;5.38;;;13.40;49.90;;;;;;4906557;28;44921;-52
2022/11/28 07:17:27;;;;;;;6.35;4.38;;;13.60;49.60;;;;;;4894164;28;45338;-58
2022/11/28 07:19:52;;;;;;;6.20;4.68;;;13.80;49.30;;;;;;4899031;28;45433;-57
2022/11/28 07:22:18;;;;;;;5.30;3.97;;;14.00;48.90;;;;;;4912734;28;45384;-63
2022/11/28 07:24:43;;;;;;;5.82;4.20;;;14.20;48.70;;;;;;4900350;28;44970;-57
2022/11/28 07:27:09;;;;;;;4.65;3.33;;;14.40;48.50;;;;;;4910692;28;45470;-59
2022/11/28 07:29:35;;;;;;;4.43;3.05;;;14.60;48.30;;;;;;4913271;28;45205;-57
2022/11/28 07:32:05;;;;;;;6.45;3.40;;;14.70;48.10;;;;;;4911100;28;46811;-57
2022/11/28 07:34:31;;;;;;;3.45;2.85;;;14.90;48.00;;;;;;4914136;28;44979;-55
2022/11/28 07:36:56;;;;;;;4.85;3.15;;;15.10;47.80;;;;;;4894485;28;45286;-59
2022/11/28 07:39:22;;;;;;;3.13;2.55;;;15.20;47.70;;;;;;4898489;28;45140;-58
2022/11/28 07:41:48;;;;;;;3.60;2.75;;;15.40;47.60;;;;;;4878635;28;45276;-60
2022/11/28 07:44:16;;;;;;;3.88;2.50;;;15.50;47.50;;;;;;4911424;28;44903;-57
2022/11/28 07:46:42;;;;;;;2.80;2.35;;;15.50;47.40;;;;;;4910813;28;45494;-56
2022/11/28 07:49:08;;;;;;;2.88;2.53;;;15.60;47.50;;;;;;4911962;28;45732;-56
2022/11/28 07:51:33;;;;;;;;;;;15.60;47.60;;;;;;4912077;28;44926;-64
2022/11/28 07:54:00;;;;;;;4.82;2.38;;;15.70;47.50;;;;;;4897264;28;45188;-61
2022/11/28 07:56:27;;;;;;;2.75;2.28;;;15.80;47.50;;;;;;4895695;28;45017;-61
2022/11/28 07:58:53;;;;;;;5.10;2.13;;;16.00;47.30;;;;;;4894821;28;45540;-60
2022/11/28 08:01:21;;;;;;;2.80;2.17;;;16.10;47.20;;;;;;4909475;28;46778;-64
2022/11/28 08:03:46;;;;;;;3.40;2.03;;;16.30;47.10;;;;;;4896813;28;45486;-64
2022/11/28 08:06:16;;;;;;;2.90;2.00;;;16.50;47.00;;;;;;4912400;28;45469;-66
2022/11/28 08:08:42;;;;;;;2.03;1.73;;;16.60;46.80;;;;;;4877746;28;45711;-63
2022/11/28 08:11:08;;;;;;;2.15;1.73;;;16.70;46.60;;;;;;4893015;28;45582;-62
2022/11/28 08:13:34;;;;;;;1.90;1.75;;;16.90;46.50;;;;;;4880899;28;45560;-65
2022/11/28 08:16:22;;;;;;;2.33;2.08;;;17.10;46.40;;;;;;4913493;28;45429;-62
2022/11/28 08:18:48;;;;;;;2.05;1.70;;;17.20;46.00;;;;;;4894301;28;45012;-63
2022/11/28 08:21:18;;;;;;;1.60;1.50;;;17.30;46.10;;;;;;4908047;28;47037;-62
2022/11/28 08:23:44;;;;;;;2.47;1.63;;;17.50;45.90;;;;;;4895730;28;45284;-62
2022/11/28 08:26:12;;;;;;;2.17;1.58;;;17.60;45.90;;;;;;4889307;28;45667;-62
2022/11/28 08:28:38;;;;;;;2.60;1.70;;;17.70;45.90;;;;;;4911487;28;45647;-61
2022/11/28 08:31:15;;;;;;;3.28;1.70;;;17.70;45.70;;;;;;4894553;28;46628;-62
2022/11/28 08:33:41;;;;;;;4.47;1.60;;;17.70;45.60;;;;;;4878881;28;45701;-62
2022/11/28 08:36:07;;;;;;;1.70;1.52;;;17.70;46.00;;;;;;4897791;28;45480;-64
2022/11/28 08:38:33;;;;;;;5.78;1.67;;;17.80;46.00;;;;;;4896917;28;44887;-62
2022/11/28 08:41:09;;;;;;;2.35;1.80;;;17.90;45.90;;;;;;4912231;28;45476;-61
2022/11/28 08:43:35;;;;;;;1.65;1.45;;;18.00;45.60;;;;;;4896062;28;45002;-61
2022/11/28 08:46:02;;;;;;;4.15;2.00;;;18.20;45.70;;;;;;4877405;28;45131;-62
2022/11/28 08:48:29;;;;;;;1.58;1.48;;;18.30;45.50;;;;;;4905274;28;45082;-64
2022/11/28 08:50:55;;;;;;;2.20;1.83;;;18.50;45.40;;;;;;4911160;28;45417;-64
2022/11/28 08:53:20;;;;;;;1.92;1.70;;;18.60;45.30;;;;;;4909939;28;45373;-65
2022/11/28 08:55:46;;;;;;;1.90;1.58;;;18.70;45.10;;;;;;4913063;28;45180;-65
2022/11/28 08:58:12;;;;;;;1.85;1.60;;;18.80;45.00;;;;;;4912408;28;44881;-61
2022/11/28 09:00:38;;;;;;;1.40;1.30;;;18.90;44.90;;;;;;4890714;28;46201;-66
2022/11/28 09:03:03;;;;;;;1.80;1.40;;;19.00;44.80;;;;;;4907760;28;45639;-62
2022/11/28 09:05:29;;;;;;;1.98;1.50;;;19.20;44.60;;;;;;4894741;28;45602;-62
2022/11/28 09:07:55;;;;;;;5.60;1.50;;;19.30;44.50;;;;;;4896216;28;45039;-62
2022/11/28 09:10:20;;;;;;;4.43;1.70;;;19.40;44.50;;;;;;4896728;28;47130;-61
2022/11/28 09:12:46;;;;;;;2.45;1.40;;;19.50;44.40;;;;;;4901150;28;46389;-62
2022/11/28 09:15:12;;;;;;;2.67;1.55;;;19.60;44.30;;;;;;4915361;28;45377;-63
2022/11/28 09:17:38;;;;;;;2.45;1.30;;;19.70;44.30;;;;;;4914402;28;45479;-61
2022/11/28 09:20:05;;;;;;;2.50;1.60;;;19.70;44.20;;;;;;4895951;28;45621;-62
2022/11/28 09:22:30;;;;;;;2.67;1.77;;;19.70;44.10;;;;;;4913640;28;45370;-63
2022/11/28 09:24:56;;;;;;;1.83;1.55;;;19.60;44.20;;;;;;4915798;28;45100;-62
2022/11/28 09:27:21;;;;;;;4.60;1.70;;;19.60;44.40;;;;;;4915280;28;45718;-62
2022/11/28 09:29:47;;;;;;;1.55;1.30;;;19.70;44.40;;;;;;4913368;28;45356;-65
2022/11/28 09:32:12;;;;;;;2.00;1.50;;;19.70;44.30;;;;;;4908617;28;45528;-59
2022/11/28 09:34:38;;;;;;;2.70;1.27;;;19.90;44.20;;;;;;4914892;28;45171;-61
2022/11/28 09:37:04;;;;;;;1.60;1.20;;;20.00;44.10;;;;;;4896147;28;45569;-62
2022/11/28 09:39:30;;;;;;;1.65;1.23;;;20.10;44.00;;;;;;4913017;28;45559;-61
2022/11/28 09:42:03;;;;;;;2.95;1.40;;;20.30;44.00;;;;;;4911150;28;45073;-63
2022/11/28 09:44:51;;;;;;;3.05;1.38;;;20.30;43.80;;;;;;4900469;28;45396;-64
2022/11/28 09:47:23;;;;;;;2.03;1.60;;;20.40;43.40;;;;;;4897386;28;45612;-64
2022/11/28 09:49:56;;;;;;;1.60;1.40;;;20.50;43.50;;;;;;4898073;28;46416;-61
2022/11/28 09:52:25;;;;;;;1.98;1.40;;;20.70;43.40;;;;;;4893662;28;44996;-65
2022/11/28 09:54:57;;;;;;;1.30;1.17;;;20.70;43.30;;;;;;4916385;28;44998;-60
2022/11/28 09:57:39;;;;;;;2.38;1.33;;;20.90;43.30;;;;;;4883320;28;45192;-62
2022/11/28 10:00:05;;;;;;;1.58;1.30;;;21.00;42.80;;;;;;4899966;28;46079;-61
2022/11/28 10:02:54;;;;;;;1.75;1.20;;;21.00;43.10;;;;;;4894679;28;45235;-63
2022/11/28 10:05:24;;;;;;;1.67;1.25;;;21.20;42.50;;;;;;4895662;28;45583;-60
2022/11/28 10:08:15;;;;;;;1.30;1.20;;;21.30;42.80;;;;;;4915693;28;45393;-60
2022/11/28 10:10:56;;;;;;;1.33;1.23;;;21.30;42.60;;;;;;4876306;28;45032;-58
2022/11/28 10:13:25;;;;;;;1.70;1.30;;;21.40;42.50;;;;;;4879120;28;44713;-60
2022/11/28 10:16:09;;;;;;;1.95;1.27;;;21.50;42.60;;;;;;4912444;28;45567;-62
2022/11/28 10:18:52;;;;;;;1.85;1.30;;;21.60;42.40;;;;;;4899913;28;45639;-61
2022/11/28 10:21:21;;;;;;;;;;;21.60;42.00;;;;;;4894472;28;46312;-57
2022/11/28 10:23:47;;;;;;;3.47;1.40;;;21.70;41.70;;;;;;4911391;28;45396;-58
2022/11/28 10:26:28;;;;;;;1.50;1.40;;;21.70;42.50;;;;;;4898543;28;45471;-62
2022/11/28 10:28:55;;;;;;;1.30;1.20;;;21.70;41.90;;;;;;4896713;28;45548;-60
2022/11/28 10:31:30;;;;;;;1.23;1.13;;;21.60;42.40;;;;;;4902145;28;45524;-60
2022/11/28 10:34:22;;;;;;;2.42;1.20;;;21.60;42.60;;;;;;4897789;28;45107;-62
2022/11/28 10:37:26;;;;;;;2.63;1.67;;;21.60;42.30;;;;;;4908682;28;45402;-62
2022/11/28 10:39:52;;;;;;;1.90;1.30;;;21.70;42.30;;;;;;4912103;28;45200;-61
2022/11/28 10:42:27;;;;;;;3.30;1.42;;;21.70;42.60;;;;;;4901874;28;45810;-63
2022/11/28 10:45:04;;;;;;;1.65;1.35;;;21.80;42.30;;;;;;4891032;28;45045;-62
2022/11/28 10:47:42;;;;;;;1.73;1.30;;;21.90;42.20;;;;;;4879021;28;44872;-59
2022/11/28 10:50:18;;;;;;;1.30;1.20;;;22.00;41.90;;;;;;4914903;28;45564;-61
2022/11/28 10:53:04;;;;;;;1.42;1.20;;;22.00;42.10;;;;;;4895807;28;47211;-63
2022/11/28 10:55:38;;;;;;;1.55;1.20;;;22.10;41.60;;;;;;4899742;28;46224;-61
2022/11/28 10:58:09;;;;;;;;;;;22.20;41.90;;;;;;4891876;28;45331;-65
2022/11/28 11:00:35;;;;;;;3.05;1.20;;;22.30;41.20;;;;;;4898604;28;45772;-64
2022/11/28 11:03:01;;;;;;;1.83;1.30;;;22.30;42.00;;;;;;4880939;28;45488;-61
2022/11/28 11:05:31;;;;;;;1.00;0.90;;;22.40;41.90;;;;;;4877191;28;45238;-63
2022/11/28 11:08:25;;;;;;;2.30;1.25;;;22.50;42.00;;;;;;4896804;28;45211;-61
2022/11/28 11:11:33;;;;;;;2.85;1.10;;;22.50;41.70;;;;;;4888762;28;45497;-61
2022/11/28 11:14:03;;;;;;;1.30;1.13;;;22.50;41.30;;;;;;4890674;28;46202;-62
2022/11/28 11:16:45;;;;;;;1.60;1.08;;;22.50;42.00;;;;;;4898724;28;45127;-61
2022/11/28 11:19:39;;;;;;;1.92;1.02;;;22.50;41.40;;;;;;4901317;28;45231;-62
2022/11/28 11:22:17;;;;;;;1.33;1.23;;;22.60;41.70;;;;;;4885312;28;45437;-63
2022/11/28 11:24:43;;;;;;;2.72;1.25;;;22.60;41.40;;;;;;4895807;28;46029;-61
2022/11/28 11:27:18;;;;;;;2.30;1.02;;;22.60;41.80;;;;;;4897230;28;45250;-61
2022/11/28 11:29:44;;;;;;;3.15;1.17;;;22.70;41.70;;;;;;4881327;28;45551;-60
2022/11/28 11:32:28;;;;;;;1.13;1.02;;;22.70;41.80;;;;;;4896112;28;45289;-62
2022/11/28 11:34:55;;;;;;;1.30;1.10;;;22.80;41.40;;;;;;4869797;28;45717;-61
2022/11/28 11:37:30;;;;;;;1.10;1.00;;;22.80;41.70;;;;;;4897714;28;45317;-61
2022/11/28 11:39:56;;;;;;;1.10;1.00;;;22.80;41.20;;;;;;4886806;28;45501;-59
2022/11/28 11:42:23;;;;;;;1.17;1.05;;;22.80;41.60;;;;;;4910189;28;46323;-64
2022/11/28 11:44:49;;;;;;;1.58;0.90;;;22.90;41.60;;;;;;4899260;28;45170;-61
2022/11/28 11:47:15;;;;;;;1.67;1.30;;;22.90;41.50;;;;;;4896366;28;45119;-61
2022/11/28 11:49:44;;;;;;;1.20;1.00;;;23.00;41.50;;;;;;4916121;28;45234;-61
2022/11/28 11:52:25;;;;;;;1.23;1.02;;;23.00;41.90;;;;;;4911905;28;45305;-62
2022/11/28 11:54:53;;;;;;;2.03;1.15;;;23.00;41.30;;;;;;4913777;28;45554;-63
2022/11/28 11:57:43;;;;;;;1.55;1.10;;;23.00;41.30;;;;;;4914016;28;44780;-63
2022/11/28 12:00:09;;;;;;;1.50;0.90;;;23.10;40.80;;;;;;4897803;28;45358;-63
2022/11/28 12:02:57;;;;;;;1.10;1.00;;;23.10;41.30;;;;;;4917730;28;45449;-62
2022/11/28 12:05:30;;;;;;;1.52;0.90;;;23.20;40.80;;;;;;4913801;28;45576;-63
2022/11/28 12:08:03;;;;;;;;;;;23.20;41.20;;;;;;4896993;28;45299;-61
2022/11/28 12:10:31;;;;;;;1.75;1.08;;;23.30;40.60;;;;;;4893744;28;44740;-61
2022/11/28 12:12:56;;;;;;;1.20;0.85;;;23.30;41.20;;;;;;4899111;28;45217;-62
2022/11/28 12:15:45;;;;;;;1.92;1.05;;;23.30;41.20;;;;;;4894525;28;45401;-61
2022/11/28 12:18:33;;;;;;;0.95;0.85;;;23.40;40.80;;;;;;4897409;28;45148;-60
2022/11/28 12:21:12;;;;;;;1.73;1.30;;;23.40;40.70;;;;;;4882522;28;45360;-61
2022/11/28 12:23:51;;;;;;;1.10;1.00;;;23.50;40.70;;;;;;4907933;28;45158;-63
2022/11/28 12:26:23;;;;;;;1.52;1.25;;;23.40;40.60;;;;;;4896673;28;45609;-63
2022/11/28 12:29:05;;;;;;;1.27;1.17;;;23.30;41.00;;;;;;4896598;28;45128;-63
2022/11/28 12:31:50;;;;;;;1.48;1.10;;;23.20;41.20;;;;;;4908511;28;45088;-63
2022/11/28 12:34:40;;;;;;;1.20;1.00;;;23.10;41.10;;;;;;4914873;28;45018;-63
2022/11/28 12:37:25;;;;;;;3.65;1.23;;;23.10;41.30;;;;;;4910688;28;45466;-64
2022/11/28 12:39:55;;;;;;;1.15;1.00;;;23.10;41.50;;;;;;4894852;28;45192;-63
2022/11/28 12:42:41;;;;;;;1.08;1.00;;;23.20;41.50;;;;;;4903965;28;45261;-62
2022/11/28 12:45:22;;;;;;;1.10;1.00;;;23.30;41.30;;;;;;4913729;28;44716;-63
2022/11/28 12:48:11;;;;;;;1.25;1.10;;;23.30;41.50;;;;;;4895382;28;45546;-64
2022/11/28 12:50:55;;;;;;;1.40;0.95;;;23.30;41.20;;;;;;4896045;28;45059;-63
2022/11/28 12:53:40;;;;;;;1.48;0.95;;;23.40;41.10;;;;;;4881982;28;45698;-63
2022/11/28 12:56:27;;;;;;;1.10;1.00;;;23.40;41.20;;;;;;4899002;28;45436;-63
2022/11/28 12:59:04;;;;;;;1.10;1.00;;;23.50;41.10;;;;;;4895892;28;45735;-63
2022/11/28 13:01:51;;;;;;;0.93;0.93;;;23.50;41.20;;;;;;4896057;28;45474;-62
2022/11/28 13:04:39;;;;;;;1.13;1.02;;;23.50;41.10;;;;;;4899090;28;45278;-63
2022/11/28 13:07:19;;;;;;;1.00;0.90;;;23.50;41.40;;;;;;4896588;28;45841;-63
2022/11/28 13:10:04;;;;;;;1.48;1.17;;;23.60;41.20;;;;;;4879421;28;45071;-63
2022/11/28 13:12:47;;;;;;;1.15;1.02;;;23.60;41.10;;;;;;4907902;28;45007;-62
2022/11/28 13:15:33;;;;;;;1.10;1.00;;;23.60;41.10;;;;;;4896325;28;45261;-61
2022/11/28 13:18:20;;;;;;;1.52;0.90;;;23.70;41.00;;;;;;4865555;28;45576;-63
2022/11/28 13:20:58;;;;;;;1.25;1.15;;;23.70;41.30;;;;;;4896956;28;45589;-63
2022/11/28 13:23:27;;;;;;;1.00;0.90;;;23.70;41.30;;;;;;4900524;28;45209;-64
2022/11/28 13:26:28;;;;;;;1.10;1.00;;;23.70;41.30;;;;;;4899324;28;45197;-63
2022/11/28 13:29:15;;;;;;;0.70;0.70;;;23.80;41.10;;;;;;4863529;28;45005;-64
2022/11/28 13:32:11;;;;;;;1.00;0.90;;;23.80;41.00;;;;;;4879865;28;46999;-63
2022/11/28 13:34:37;;;;;;;4.22;1.15;;;23.80;41.00;;;;;;4893389;28;45224;-63
2022/11/28 13:37:17;;;;;;;1.02;0.90;;;23.80;41.30;;;;;;4896765;28;45340;-62
2022/11/28 13:39:51;;;;;;;1.17;1.08;;;23.80;41.30;;;;;;4893143;28;45708;-62
2022/11/28 13:42:30;;;;;;;1.83;0.88;;;23.80;41.30;;;;;;4912434;28;46565;-63
2022/11/28 13:45:06;;;;;;;1.23;0.98;;;23.80;41.40;;;;;;4885897;28;45253;-62
2022/11/28 13:47:33;;;;;;;2.10;0.98;;;23.80;41.40;;;;;;4889408;28;45272;-62
2022/11/28 13:50:24;;;;;;;2.45;1.10;;;23.70;41.50;;;;;;4883383;28;44753;-62
2022/11/28 13:53:18;;;;;;;1.00;0.75;;;23.80;41.20;;;;;;4914064;28;46264;-63
2022/11/28 13:55:48;;;;;;;0.98;0.75;;;23.80;41.40;;;;;;4902447;28;45236;-63
2022/11/28 13:58:17;;;;;;;0.75;0.75;;;23.80;41.60;;;;;;4913242;28;45106;-63
2022/11/28 14:00:58;;;;;;;0.88;0.88;;;23.80;41.50;;;;;;4898803;28;45013;-62
2022/11/28 14:03:25;;;;;;;1.17;0.90;;;23.80;41.30;;;;;;4887047;28;45510;-61
2022/11/28 14:05:55;;;;;;;0.95;0.85;;;23.80;41.50;;;;;;4919409;28;45264;-61
2022/11/28 14:08:37;;;;;;;2.05;0.80;;;23.80;41.50;;;;;;4897708;28;45174;-61
2022/11/28 14:11:25;;;;;;;0.80;0.80;;;23.80;41.40;;;;;;4897485;28;45170;-61
2022/11/28 14:14:08;;;;;;;1.38;1.02;;;23.90;41.20;;;;;;4914082;28;46621;-62
2022/11/28 14:16:59;;;;;;;0.95;0.80;;;23.90;41.40;;;;;;4904716;28;45130;-61
2022/11/28 14:19:44;;;;;;;0.95;0.85;;;23.90;41.30;;;;;;4912163;28;45280;-61
2022/11/28 14:22:35;;;;;;;1.05;1.00;;;23.90;42.20;;;;;;4899289;28;45725;-61
2022/11/28 14:25:04;;;;;;;0.93;0.88;;;23.90;41.30;;;;;;4902023;28;45262;-61
2022/11/28 14:27:32;;;;;;;1.20;0.90;;;23.90;41.60;;;;;;4884282;28;45302;-62
2022/11/28 14:29:57;;;;;;;1.40;0.88;;;23.90;41.60;;;;;;4882308;28;44965;-62
2022/11/28 14:32:38;;;;;;;1.80;1.00;;;23.90;41.60;;;;;;4901079;28;44933;-61
2022/11/28 14:35:05;;;;;;;3.08;0.80;;;23.90;41.40;;;;;;4880391;28;46164;-62
2022/11/28 14:37:32;;;;;;;0.88;0.80;;;23.90;41.60;;;;;;4859242;29;45425;-61
2022/11/28 14:39:58;;;;;;;1.25;0.70;;;23.90;41.60;;;;;;4914956;28;46255;-61
2022/11/28 14:42:23;;;;;;;0.95;0.88;;;23.90;41.60;;;;;;4898655;28;45860;-62
2022/11/28 14:44:49;;;;;;;0.93;0.82;;;23.90;41.60;;;;;;4901780;28;47147;-61
2022/11/28 14:47:33;;;;;;;0.77;0.70;;;24.00;41.70;;;;;;4909516;28;45310;-62
2022/11/28 14:50:12;;;;;;;1.48;1.00;;;24.00;41.70;;;;;;4914082;28;44764;-63
2022/11/28 14:52:39;;;;;;;1.52;0.80;;;24.00;41.60;;;;;;4914135;28;45227;-62
2022/11/28 14:55:11;;;;;;;1.20;0.95;;;24.00;41.70;;;;;;4903010;28;45848;-61
2022/11/28 14:57:43;;;;;;;1.10;1.00;;;24.00;41.60;;;;;;4898108;28;45278;-62
2022/11/28 15:00:17;;;;;;;2.27;1.10;;;24.00;41.60;;;;;;4897171;28;45563;-62
2022/11/28 15:02:47;;;;;;;1.10;0.90;;;24.00;41.50;;;;;;4898375;28;44699;-62
2022/11/28 15:05:24;;;;;;;1.05;0.95;;;24.00;41.60;;;;;;4895646;28;46037;-62
2022/11/28 15:08:17;;;;;;;1.90;1.20;;;24.00;41.50;;;;;;4901604;28;45485;-67
2022/11/28 15:10:50;;;;;;;1.25;1.00;;;24.10;41.60;;;;;;4915638;28;45202;-62
2022/11/28 15:13:25;;;;;;;1.15;0.88;;;24.00;41.70;;;;;;4916729;28;45411;-62
2022/11/28 15:15:51;;;;;;;1.17;1.00;;;24.10;41.70;;;;;;4898828;28;45400;-61
2022/11/28 15:18:17;;;;;;;0.80;0.80;;;24.10;41.70;;;;;;4896981;28;44844;-61
2022/11/28 15:21:03;;;;;;;0.70;0.70;;;24.10;41.80;;;;;;4878603;29;45260;-61
2022/11/28 15:23:32;;;;;;;1.10;0.95;;;24.10;41.50;;;;;;4902249;28;45414;-60
2022/11/28 15:25:59;;;;;;;1.13;1.00;;;24.10;41.70;;;;;;4897055;28;45937;-62
2022/11/28 15:28:27;;;;;;;1.02;0.93;;;24.10;41.80;;;;;;4899246;28;45392;-61
2022/11/28 15:30:56;;;;;;;1.30;1.20;;;24.10;41.80;;;;;;4915289;28;45169;-62
2022/11/28 15:33:23;;;;;;;1.00;0.90;;;24.10;41.70;;;;;;4895671;28;44853;-61
2022/11/28 15:35:59;;;;;;;0.90;0.80;;;24.10;41.70;;;;;;4880961;28;45301;-61
2022/11/28 15:38:25;;;;;;;1.67;1.05;;;24.10;41.60;;;;;;4895753;28;45232;-62
2022/11/28 15:40:52;;;;;;;1.40;1.10;;;24.10;41.80;;;;;;4900528;28;45389;-62
2022/11/28 15:43:17;;;;;;;0.85;0.85;;;24.10;41.70;;;;;;4884343;28;45432;-62
2022/11/28 15:45:43;;;;;;;0.80;0.80;;;24.10;41.80;;;;;;4883622;28;45328;-61
2022/11/28 15:48:25;;;;;;;2.92;0.77;;;24.20;41.80;;;;;;4881826;28;45495;-60
2022/11/28 15:50:50;;;;;;;1.10;1.00;;;24.20;41.60;;;;;;4884206;28;45279;-61
2022/11/28 15:53:17;;;;;;;0.88;0.80;;;24.20;41.80;;;;;;4905268;28;45503;-61
2022/11/28 15:55:43;;;;;;;1.00;0.90;;;24.20;41.70;;;;;;4881786;28;47218;-62
2022/11/28 15:58:24;;;;;;;0.80;0.70;;;24.20;41.70;;;;;;4880197;28;45513;-60
2022/11/28 16:01:01;;;;;;;1.05;0.85;;;24.20;41.50;;;;;;4901859;28;45338;-62
2022/11/28 16:03:28;;;;;;;0.70;0.70;;;24.20;41.70;;;;;;4867185;28;45605;-61
2022/11/28 16:05:54;;;;;;;1.10;0.90;;;24.20;41.70;;;;;;4883657;28;45181;-62
2022/11/28 16:08:24;;;;;;;0.80;0.80;;;24.20;41.70;;;;;;4884690;28;45184;-62
2022/11/28 16:10:50;;;;;;;1.55;1.00;;;24.20;41.70;;;;;;4900138;28;45171;-62
2022/11/28 16:13:17;;;;;;;0.80;0.80;;;24.20;41.70;;;;;;4876986;28;45257;-62
2022/11/28 16:15:46;;;;;;;0.73;0.73;;;24.20;41.70;;;;;;4877619;28;46600;-61
2022/11/28 16:18:15;;;;;;;0.98;0.88;;;24.20;41.70;;;;;;4900115;28;45128;-61
2022/11/28 16:20:40;;;;;;;0.70;0.70;;;24.20;41.70;;;;;;4899553;28;45392;-61
2022/11/28 16:23:07;;;;;;;0.65;0.65;;;24.20;41.80;;;;;;4913404;28;46298;-61
2022/11/28 16:25:33;;;;;;;1.70;0.98;;;24.20;41.80;;;;;;4896845;28;45517;-63
2022/11/28 16:27:58;;;;;;;0.77;0.77;;;24.20;41.80;;;;;;4911749;28;45455;-62
2022/11/28 16:30:30;;;;;;;0.52;0.52;;;24.20;41.80;;;;;;4917631;28;44799;-63
2022/11/28 16:32:56;;;;;;;1.30;1.10;;;24.10;41.70;;;;;;4911530;28;45397;-63
2022/11/28 16:35:29;;;;;;;1.20;1.10;;;24.00;41.80;;;;;;4883261;28;45356;-63
2022/11/28 16:38:13;;;;;;;;;;;23.90;41.90;;;;;;4898587;28;44995;-63
2022/11/28 16:40:38;;;;;;;;;;;23.70;41.90;;;;;;4909526;28;45050;-63
2022/11/28 16:43:05;;;;;;;1.05;0.95;;;23.60;42.20;;;;;;4900646;28;45252;-62
2022/11/28 16:45:31;;;;;;;0.98;0.90;;;23.50;42.60;;;;;;4878445;29;46464;-63
2022/11/28 16:48:16;;;;;;;0.90;0.80;;;23.40;42.60;;;;;;4875023;28;45438;-63
2022/11/28 16:51:01;;;;;;;1.85;1.17;;;23.30;42.60;;;;;;4867325;28;44749;-64
2022/11/28 16:53:43;;;;;;;1.50;1.13;;;23.20;42.80;;;;;;4887120;28;45639;-64
2022/11/28 16:56:30;;;;;;;1.60;1.27;;;23.10;42.90;;;;;;4897393;28;46505;-62
2022/11/28 16:59:10;;;;;;;1.27;1.08;;;23.00;43.00;;;;;;4910941;28;45609;-63
2022/11/28 17:01:36;;;;;;;1.08;0.98;;;22.90;43.20;;;;;;4877004;28;45286;-64
2022/11/28 17:04:02;;;;;;;1.02;0.95;;;22.80;43.40;;;;;;4862823;28;45396;-63
2022/11/28 17:06:32;;;;;;;1.70;1.02;;;22.70;43.40;;;;;;4910135;28;46506;-63
2022/11/28 17:09:00;;;;;;;1.15;0.90;;;22.60;43.60;;;;;;4880187;28;45405;-60
2022/11/28 17:11:27;;;;;;;1.20;1.00;;;22.50;43.70;;;;;;4911984;28;44977;-62
2022/11/28 17:13:52;;;;;;;1.40;1.10;;;22.50;43.80;;;;;;4863817;28;44768;-61